Vb La Graciosa — EA5408 — position and weather

sailwx.info

Track history (hours):
 
Tides and Currents Weather Stations Pressure Air Temp Water Temp Dewpoint Dewpoint Depression Visibility Wind Speed Wind Dir Waves Ship Positions

Vb La Graciosa

Last reported at 2018-Jan-19 19:28 UTC. Time now 2018-Jan-19 21:25 UTC.
Position N 28°09' W 015°25'.

Length 22 m.

Type: Ship. MMSI: 225983994.

Date/timePositionNaut miles runAvg speedWind from/ knotsBaromVisibWave heightAir tempDewpointWater temp
2018-Jan-19 19:28N 28°09' W 015°25'3 6.7
2018-Jan-19 19:00N 28°06' W 015°24'1 1.9
2018-Jan-19 18:30N 28°05' W 015°24'1 1.1
2018-Jan-19 18:00N 28°06' W 015°24'2 0.3
2018-Jan-19 12:56N 28°07' W 015°23'2 3.7
2018-Jan-19 12:30N 28°06' W 015°21'3 5.5
2018-Jan-19 12:00N 28°07' W 015°24'0 1.0
2018-Jan-19 11:30N 28°07' W 015°25'2 0.1
2018-Jan-18 09:37N 28°09' W 015°25'0 0.1
2018-Jan-18 09:30N 28°09' W 015°25'5 9.5
2018-Jan-18 09:00N 28°05' W 015°23'1 2.2
2018-Jan-18 08:30N 28°04' W 015°23'3 6.7
2018-Jan-18 08:00N 28°07' W 015°24'1 1.1
2018-Jan-18 07:30N 28°07' W 015°25'0 0.0
2018-Jan-18 07:00N 28°07' W 015°25'0 0.0
2018-Jan-18 06:30N 28°07' W 015°25'2 3.2
2018-Jan-18 06:00N 28°09' W 015°25'0 0.0
2018-Jan-18 05:30N 28°09' W 015°25'  
2018-Jan-11 15:26N 28°09' W 015°25'0 0.0
2018-Jan-11 15:00N 28°09' W 015°25'0 0.0
2018-Jan-11 14:30N 28°09' W 015°25'0 0.0
2018-Jan-11 14:00N 28°09' W 015°25'1 0.2
2018-Jan-11 07:14N 28°08' W 015°25'1 5.7
2018-Jan-11 07:00N 28°09' W 015°25'0 0.0
2018-Jan-11 06:18N 28°09' W 015°25'0 0.2
2018-Jan-11 05:09N 28°09' W 015°25'0 0.0
2018-Jan-11 05:01N 28°09' W 015°25'0 0.2
2018-Jan-11 03:20N 28°09' W 015°25'2 5.7
2018-Jan-11 03:00N 28°07' W 015°25'1 1.5
2018-Jan-11 02:29N 28°06' W 015°24'3 0.5
2018-Jan-10 21:21N 28°09' W 015°25'2 6.7
2018-Jan-10 21:00N 28°07' W 015°25'0 0.8
2018-Jan-10 20:30N 28°07' W 015°25'2 0.6
2018-Jan-10 17:10N 28°09' W 015°25'0 2.5
2018-Jan-10 17:00N 28°08' W 015°25'2 4.1
2018-Jan-10 16:30N 28°07' W 015°24'0 0.0
2018-Jan-10 16:00N 28°07' W 015°24'0 0.1
2018-Jan-10 15:30N 28°07' W 015°24'0 0.1
2018-Jan-10 14:59N 28°07' W 015°24'2 3.4
2018-Jan-10 14:30N 28°08' W 015°25'2 3.2
2018-Jan-10 14:00N 28°07' W 015°24'0 0.0
2018-Jan-10 13:30N 28°07' W 015°24'0 0.1
2018-Jan-10 13:00N 28°07' W 015°24'0 0.0
2018-Jan-10 12:30N 28°07' W 015°24'2 4.8
2018-Jan-10 12:00N 28°09' W 015°25'2 3.4
2018-Jan-10 11:30N 28°07' W 015°25'1 1.1
2018-Jan-10 11:00N 28°07' W 015°24'2 4.7
2018-Jan-10 10:30N 28°09' W 015°25'0 0.0
2018-Jan-10 10:00N 28°09' W 015°25'0 0.0
2018-Jan-10 09:30N 28°09' W 015°25'0 0.5
2018-Jan-10 09:00N 28°09' W 015°25'4 7.2
2018-Jan-10 08:30N 28°05' W 015°23'2 3.1
2018-Jan-10 08:00N 28°04' W 015°23'3 5.6
2018-Jan-10 07:30N 28°06' W 015°24'  
Track history (hours):
 
Tides and Currents Weather Stations Pressure Air Temp Water Temp Dewpoint Dewpoint Depression Visibility Wind Speed Wind Dir Waves Ship Positions

Vb La Graciosa

Last reported at 2018-Jan-19 19:28 UTC. Time now 2018-Jan-19 21:25 UTC.
Position N 28°09' W 015°25'.

Length 22 m.

Type: Ship. MMSI: 225983994.

Date/timePositionNaut miles runAvg speedWind from/ knotsBaromVisibWave heightAir tempDewpointWater temp
2018-Jan-19 19:28N 28°09' W 015°25'3 6.7
2018-Jan-19 19:00N 28°06' W 015°24'1 1.9
2018-Jan-19 18:30N 28°05' W 015°24'1 1.1
2018-Jan-19 18:00N 28°06' W 015°24'2 0.3
2018-Jan-19 12:56N 28°07' W 015°23'2 3.7
2018-Jan-19 12:30N 28°06' W 015°21'3 5.5
2018-Jan-19 12:00N 28°07' W 015°24'0 1.0
2018-Jan-19 11:30N 28°07' W 015°25'2 0.1
2018-Jan-18 09:37N 28°09' W 015°25'0 0.1
2018-Jan-18 09:30N 28°09' W 015°25'5 9.5
2018-Jan-18 09:00N 28°05' W 015°23'1 2.2
2018-Jan-18 08:30N 28°04' W 015°23'3 6.7
2018-Jan-18 08:00N 28°07' W 015°24'1 1.1
2018-Jan-18 07:30N 28°07' W 015°25'0 0.0
2018-Jan-18 07:00N 28°07' W 015°25'0 0.0
2018-Jan-18 06:30N 28°07' W 015°25'2 3.2
2018-Jan-18 06:00N 28°09' W 015°25'0 0.0
2018-Jan-18 05:30N 28°09' W 015°25'  
2018-Jan-11 15:26N 28°09' W 015°25'0 0.0
2018-Jan-11 15:00N 28°09' W 015°25'0 0.0
2018-Jan-11 14:30N 28°09' W 015°25'0 0.0
2018-Jan-11 14:00N 28°09' W 015°25'1 0.2
2018-Jan-11 07:14N 28°08' W 015°25'1 5.7
2018-Jan-11 07:00N 28°09' W 015°25'0 0.0
2018-Jan-11 06:18N 28°09' W 015°25'0 0.2
2018-Jan-11 05:09N 28°09' W 015°25'0 0.0
2018-Jan-11 05:01N 28°09' W 015°25'0 0.2
2018-Jan-11 03:20N 28°09' W 015°25'2 5.7
2018-Jan-11 03:00N 28°07' W 015°25'1 1.5
2018-Jan-11 02:29N 28°06' W 015°24'3 0.5
2018-Jan-10 21:21N 28°09' W 015°25'2 6.7
2018-Jan-10 21:00N 28°07' W 015°25'0 0.8
2018-Jan-10 20:30N 28°07' W 015°25'2 0.6
2018-Jan-10 17:10N 28°09' W 015°25'0 2.5
2018-Jan-10 17:00N 28°08' W 015°25'2 4.1
2018-Jan-10 16:30N 28°07' W 015°24'0 0.0
2018-Jan-10 16:00N 28°07' W 015°24'0 0.1
2018-Jan-10 15:30N 28°07' W 015°24'0 0.1
2018-Jan-10 14:59N 28°07' W 015°24'2 3.4
2018-Jan-10 14:30N 28°08' W 015°25'2 3.2
2018-Jan-10 14:00N 28°07' W 015°24'0 0.0
2018-Jan-10 13:30N 28°07' W 015°24'0 0.1
2018-Jan-10 13:00N 28°07' W 015°24'0 0.0
2018-Jan-10 12:30N 28°07' W 015°24'2 4.8
2018-Jan-10 12:00N 28°09' W 015°25'2 3.4
2018-Jan-10 11:30N 28°07' W 015°25'1 1.1
2018-Jan-10 11:00N 28°07' W 015°24'2 4.7
2018-Jan-10 10:30N 28°09' W 015°25'0 0.0
2018-Jan-10 10:00N 28°09' W 015°25'0 0.0
2018-Jan-10 09:30N 28°09' W 015°25'0 0.5
2018-Jan-10 09:00N 28°09' W 015°25'4 7.2
2018-Jan-10 08:30N 28°05' W 015°23'2 3.1
2018-Jan-10 08:00N 28°04' W 015°23'3 5.6
2018-Jan-10 07:30N 28°06' W 015°24'  

Dump ship's entire track history